Main page
METAR-TAF:

METAR-TAF

Airports :

Niamey, Niger

Diori Hamani International Airport

latitude: 13-29N, longitude: 002-10E, elevation: 223 m

Current weather observation

The report was made 19 minutes ago, at 07:00 UTC
Wind 3 kt from the South
Temperature 30°C
Humidity 19%
Pressure 1010 hPa
Visibility: 4500 m
widespread dust

METAR: DRRN 230700Z 19003KT 4500 DU NSC 30/04 Q1010 BECMG 6000

Time: 08:19 (07:19 UTC)

Forecast

The report was made 2 hours and 19 minutes ago, at 05:00 UTC
Forecast valid from 23 at 06 UTC to 24 at 12 UTC
Wind 8 kt from the Northeast
Visibility: 6000 m
Temporary
from 23 at 06 UTC to 23 at 09 UTC
Visibility: 4000 m
widespread dust
Probability 30% :
Temporary
from 23 at 15 UTC to 23 at 20 UTC
Few clouds at a height of 4500 ft, Cumulonimbus.
thunderstorm

TAF: DRRN 230500Z 2306/2412 04008KT 6000 NSC TEMPO 2306/2309 4000 DU PROB30 TEMPO 2315/2320 TS FEW045CB

Weather observations and forecasts of more than 4000 airports (METAR and TAF reports).

The available stations are represented by yellow and red dots on the map.

Hover mouse over dot to see the name of the station.

Then click to see weather observations and forecasts.

To change the map : click on the green buttons with a black cross to zoom in, on the green button with a dash to zoom out, or on the green arrows for adjacent maps.


METAR-TAF: